Time;durP1;ratioP1;P1;durP2;ratioP2;P2;SDS_P1;SDS_P2;PMS_P1;PMS_P2;Temp;Humidity;BMP_temperature;BMP_pressure;BME280_temperature;BME280_humidity;BME280_pressure;Samples;Min_cycle;Max_cycle;Signal;HPM_P1;HPM_P2
2023/09/06 00:01:23;;;;;;;;;;;;;;;;;;6183110;23;19986;-83
2023/09/06 00:03:50;;;;;;;;;;;;;;;;;;6184728;23;19919;-83
2023/09/06 00:06:16;;;;;;;;;;;;;;;;;;6186425;22;20360;-84
2023/09/06 00:08:44;;;;;;;;;;;;;;;;;;6267468;22;19919;-83
2023/09/06 00:11:12;;;;;;;;;;;;;;;;;;6267132;22;19933;-84
2023/09/06 00:13:38;;;;;;;;;;;;;;;;;;6241984;22;20411;-84
2023/09/06 00:16:04;;;;;;;;;;;;;;;;;;6268587;22;19919;-84
2023/09/06 00:18:31;;;;;;;;;;;;;;;;;;6242187;22;20206;-83
2023/09/06 00:21:16;;;;;;;;;;;;;;;;;;;;;
2023/09/06 00:23:49;;;;;;;;;;;;;;;;;;6262580;22;19994;-83
2023/09/06 00:26:16;;;;;;;;;;;;;;;;;;6242603;22;19990;-83
2023/09/06 00:28:45;;;;;;;;;;;;;;;;;;6242679;22;19968;-83
2023/09/06 00:31:17;;;;;;;;;;;;;;;;;;6269826;22;19966;-83
2023/09/06 00:33:48;;;;;;;;;;;;;;;;;;6268275;22;19926;-83
2023/09/06 00:36:15;;;;;;;;;;;;;;;;;;6267441;22;20225;-83
2023/09/06 00:38:43;;;;;;;;;;;;;;;;;;6241630;22;19923;-83
2023/09/06 00:41:09;;;;;;;;;;;;;;;;;;6268311;22;20344;-83
2023/09/06 00:43:35;;;;;;;;;;;;;;;;;;6242317;22;19977;-83
2023/09/06 00:46:07;;;;;;;;;;;;;;;;;;6242721;22;19923;-83
2023/09/06 00:48:33;;;;;;;;;;;;;;;;;;6242214;22;19919;-83
2023/09/06 00:50:59;;;;;;;;;;;;;;;;;;6241502;22;20421;-84
2023/09/06 00:53:26;;;;;;;;;;;;;;;;;;6266552;22;19916;-84
2023/09/06 00:56:02;;;;;;;;;;;;;;;;;;6268374;22;20599;-83
2023/09/06 00:58:29;;;;;;;;;;;;;;;;;;6239539;22;20069;-83
2023/09/06 01:00:57;;;;;;;;;;;;;;;;;;6265534;22;19919;-83
2023/09/06 01:03:23;;;;;;;;;;;;;;;;;;6267189;22;19921;-83
2023/09/06 01:05:51;;;;;;;;;;;;;;;;;;6240125;22;19969;-83
2023/09/06 01:08:24;;;;;;;;;;;;;;;;;;6265730;22;19977;-83
2023/09/06 01:10:52;;;;;;;;;;;;;;;;;;6267309;22;20002;-83
2023/09/06 01:13:19;;;;;;;;;;;;;;;;;;6267597;22;19919;-83
2023/09/06 01:15:47;;;;;;;;;;;;;;;;;;6267497;22;19919;-83
2023/09/06 01:18:13;;;;;;;;;;;;;;;;;;6266129;22;19919;-83
2023/09/06 01:20:41;;;;;;;;;;;;;;;;;;6241383;22;19925;-83
2023/09/06 01:23:09;;;;;;;;;;;;;;;;;;6266860;22;19919;-83
2023/09/06 01:25:36;;;;;;;;;;;;;;;;;;6267387;22;19927;-83
2023/09/06 01:28:02;;;;;;;;;;;;;;;;;;6240138;22;19959;-83
2023/09/06 01:30:29;;;;;;;;;;;;;;;;;;6265254;22;20018;-83
2023/09/06 01:33:05;;;;;;;;;;;;;;;;;;6268825;22;20006;-83
2023/09/06 01:35:46;;;;;;;;;;;;;;;;;;6241561;22;20029;-83
2023/09/06 01:38:32;;;;;;;;;;;;;;;;;;6242261;22;19919;-83
2023/09/06 01:40:59;;;;;;;;;;;;;;;;;;6265571;22;19919;-83
2023/09/06 01:43:28;;;;;;;;;;;;;;;;;;6216021;22;19919;-83
2023/09/06 01:45:56;;;;;;;;;;;;;;;;;;6238947;22;19954;-83
2023/09/06 01:48:23;;;;;;;;;;;;;;;;;;6264779;22;20353;-83
2023/09/06 01:50:49;;;;;;;;;;;;;;;;;;6264214;22;19924;-84
2023/09/06 01:53:16;;;;;;;;;;;;;;;;;;6265867;22;19919;-83
2023/09/06 01:55:43;;;;;;;;;;;;;;;;;;6214609;22;20026;-83
2023/09/06 01:58:10;;;;;;;;;;;;;;;;;;6214777;22;19915;-82
2023/09/06 02:00:38;;;;;;;;;;;;;;;;;;6213426;22;19950;-83
2023/09/06 02:03:05;;;;;;;;;;;;;;;;;;6239870;22;20336;-83
2023/09/06 02:05:33;;;;;;;;;;;;;;;;;;6239252;22;19989;-83
2023/09/06 02:07:59;;;;;;;;;;;;;;;;;;6265797;22;20384;-83
2023/09/06 02:10:26;;;;;;;;;;;;;;;;;;6265033;22;20100;-83
2023/09/06 02:12:52;;;;;;;;;;;;;;;;;;6267126;22;19920;-83
2023/09/06 02:15:38;;;;;;;;;;;;;;;;;;6265667;22;19936;-83
2023/09/06 02:18:04;;;;;;;;;;;;;;;;;;6265796;22;19919;-83
2023/09/06 02:20:31;;;;;;;;;;;;;;;;;;6267154;22;19919;-83
2023/09/06 02:22:58;;;;;;;;;;;;;;;;;;6266696;22;19927;-83
2023/09/06 02:25:26;;;;;;;;;;;;;;;;;;6266763;22;19919;-82
2023/09/06 02:27:52;;;;;;;;;;;;;;;;;;6279283;22;19950;-83
2023/09/06 02:30:20;;;;;;;;;;;;;;;;;;6266646;22;19923;-83
2023/09/06 02:32:47;;;;;;;;;;;;;;;;;;6241749;22;19945;-83
2023/09/06 02:35:15;;;;;;;;;;;;;;;;;;6265331;22;20280;-83
2023/09/06 02:37:54;;;;;;;;;;;;;;;;;;6267650;22;19980;-83
2023/09/06 02:40:20;;;;;;;;;;;;;;;;;;6239944;22;20014;-83
2023/09/06 02:42:48;;;;;;;;;;;;;;;;;;6241040;22;19998;-83
2023/09/06 02:45:15;;;;;;;;;;;;;;;;;;6267581;22;19919;-82
2023/09/06 02:47:49;;;;;;;;;;;;;;;;;;6269705;22;19919;-83
2023/09/06 02:50:16;;;;;;;;;;;;;;;;;;6241624;22;19923;-82
2023/09/06 02:52:46;;;;;;;;;;;;;;;;;;6241202;22;20421;-83
2023/09/06 02:55:14;;;;;;;;;;;;;;;;;;6265987;22;19926;-83
2023/09/06 02:57:40;;;;;;;;;;;;;;;;;;6265232;22;19919;-83
2023/09/06 03:00:18;;;;;;;;;;;;;;;;;;6266535;22;19927;-83
2023/09/06 03:02:45;;;;;;;;;;;;;;;;;;6266760;22;19919;-83
2023/09/06 03:05:17;;;;;;;;;;;;;;;;;;6266690;22;19923;-83
2023/09/06 03:07:44;;;;;;;;;;;;;;;;;;6241575;22;19919;-83
2023/09/06 03:10:12;;;;;;;;;;;;;;;;;;6266637;22;20033;-83
2023/09/06 03:12:40;;;;;;;;;;;;;;;;;;6266518;22;19919;-83
2023/09/06 03:15:09;;;;;;;;;;;;;;;;;;6269564;22;19985;-83
2023/09/06 03:17:40;;;;;;;;;;;;;;;;;;6266613;22;20290;-83
2023/09/06 03:20:55;;;;;;;;;;;;;;;;;;6268015;22;19922;-84
2023/09/06 03:23:09;;;;;;;;;;;;;;;;;;6257162;22;20531;-83
2023/09/06 03:25:45;;;;;;;;;;;;;;;;;;6281814;22;20327;-83
2023/09/06 03:28:12;;;;;;;;;;;;;;;;;;6269098;22;19931;-83
2023/09/06 03:30:38;;;;;;;;;;;;;;;;;;6272445;22;19923;-83
2023/09/06 03:33:06;;;;;;;;;;;;;;;;;;6273177;22;20260;-83
2023/09/06 03:35:34;;;;;;;;;;;;;;;;;;6273208;22;19946;-83
2023/09/06 03:38:00;;;;;;;;;;;;;;;;;;6247310;22;19968;-83
2023/09/06 03:40:34;;;;;;;;;;;;;;;;;;6249323;22;19958;-83
2023/09/06 03:43:00;;;;;;;;;;;;;;;;;;6273168;22;20350;-83
2023/09/06 03:45:30;;;;;;;;;;;;;;;;;;6301141;22;19949;-83
2023/09/06 03:47:58;;;;;;;;;;;;;;;;;;6247378;22;20017;-84
2023/09/06 03:50:24;;;;;;;;;;;;;;;;;;6248191;22;19925;-83
2023/09/06 03:52:54;;;;;;;;;;;;;;;;;;6272473;22;20340;-83
2023/09/06 03:55:34;;;;;;;;;;;;;;;;;;6275701;22;19937;-83
2023/09/06 03:58:04;;;;;;;;;;;;;;;;;;6247502;22;19915;-83
2023/09/06 04:00:47;;;;;;;;;;;;;;;;;;6299290;22;19919;-84
2023/09/06 04:03:14;;;;;;;;;;;;;;;;;;6268677;22;20217;-84
2023/09/06 04:05:40;;;;;;;;;;;;;;;;;;6273269;22;19925;-83
2023/09/06 04:08:09;;;;;;;;;;;;;;;;;;6271875;22;19919;-84
2023/09/06 04:13:33;;;;;;;;;;;;;;;;;;6272763;22;19941;-84
2023/09/06 04:15:59;;;;;;;;;;;;;;;;;;6246634;22;20361;-84
2023/09/06 04:18:28;;;;;;;;;;;;;;;;;;6273431;22;19918;-84
2023/09/06 04:20:56;;;;;;;;;;;;;;;;;;6297937;22;20350;-84
2023/09/06 04:23:25;;;;;;;;;;;;;;;;;;6298320;22;20326;-84
2023/09/06 04:25:54;;;;;;;;;;;;;;;;;;6271700;22;19930;-84
2023/09/06 04:28:37;;;;;;;;;;;;;;;;;;6270416;22;20370;-84
2023/09/06 04:31:03;;;;;;;;;;;;;;;;;;6239768;22;19923;-84
2023/09/06 04:33:29;;;;;;;;;;;;;;;;;;6264245;22;19919;-83
2023/09/06 04:36:11;;;;;;;;;;;;;;;;;;6265371;22;19942;-84
2023/09/06 04:38:37;;;;;;;;;;;;;;;;;;6239908;22;20367;-83
2023/09/06 04:41:03;;;;;;;;;;;;;;;;;;6240899;22;20410;-84
2023/09/06 04:43:30;;;;;;;;;;;;;;;;;;6239841;22;19951;-84
2023/09/06 04:45:59;;;;;;;;;;;;;;;;;;6240997;22;20000;-84
2023/09/06 04:48:27;;;;;;;;;;;;;;;;;;6265108;22;19915;-84
2023/09/06 04:50:56;;;;;;;;;;;;;;;;;;6240614;22;19923;-84
2023/09/06 04:53:23;;;;;;;;;;;;;;;;;;6266648;22;20240;-83
2023/09/06 04:55:52;;;;;;;;;;;;;;;;;;6236733;22;20396;-84
2023/09/06 04:58:29;;;;;;;;;;;;;;;;;;6255206;22;19919;-84
2023/09/06 05:00:59;;;;;;;;;;;;;;;;;;6240687;22;20301;-84
2023/09/06 05:03:26;;;;;;;;;;;;;;;;;;6241226;22;19920;-84
2023/09/06 05:05:54;;;;;;;;;;;;;;;;;;6242144;22;20005;-84
2023/09/06 05:08:22;;;;;;;;;;;;;;;;;;6240943;22;19930;-84
2023/09/06 05:10:49;;;;;;;;;;;;;;;;;;6242096;22;20281;-84
2023/09/06 05:13:16;;;;;;;;;;;;;;;;;;6216477;22;19919;-84
2023/09/06 05:18:50;;;;;;;;;;;;;;;;;;6269106;22;19919;-81
2023/09/06 05:21:22;;;;;;;;;;;;;;;;;;6242165;22;19919;-81
2023/09/06 05:23:54;;;;;;;;;;;;;;;;;;6213897;22;20396;-81
2023/09/06 05:26:28;;;;;;;;;;;;;;;;;;6216704;22;19926;-81
2023/09/06 05:29:15;;;;;;;;;;;;;;;;;;6217247;22;19923;-80
2023/09/06 05:31:41;;;;;;;;;;;;;;;;;;6237053;22;19938;-80
2023/09/06 05:34:10;;;;;;;;;;;;;;;;;;6238633;22;20643;-80
2023/09/06 05:36:35;;;;;;;;;;;;;;;;;;6238709;22;20015;-80
2023/09/06 05:39:06;;;;;;;;;;;;;;;;;;6239258;22;19990;-80
2023/09/06 05:41:50;;;;;;;;;;;;;;;;;;6238878;22;20367;-80
2023/09/06 05:44:16;;;;;;;;;;;;;;;;;;6214711;22;20308;-81
2023/09/06 05:46:43;;;;;;;;;;;;;;;;;;6239128;22;19927;-80
2023/09/06 05:49:14;;;;;;;;;;;;;;;;;;6214268;22;19954;-81
2023/09/06 05:51:47;;;;;;;;;;;;;;;;;;6262070;22;20055;-81
2023/09/06 05:54:14;;;;;;;;;;;;;;;;;;6213893;22;19919;-80
2023/09/06 05:56:41;;;;;;;;;;;;;;;;;;6237105;22;19961;-81
2023/09/06 05:59:07;;;;;;;;;;;;;;;;;;6237885;22;19916;-80
2023/09/06 06:01:39;;;;;;;;;;;;;;;;;;6240143;22;19929;-81
2023/09/06 06:04:05;;;;;;;;;;;;;;;;;;6237584;22;19923;-80
2023/09/06 06:06:31;;;;;;;;;;;;;;;;;;6213159;22;19971;-80
2023/09/06 06:08:59;;;;;;;;;;;;;;;;;;6211747;22;20308;-80
2023/09/06 06:11:26;;;;;;;;;;;;;;;;;;6213395;22;20411;-80
2023/09/06 06:13:52;;;;;;;;;;;;;;;;;;6235367;22;20252;-80
2023/09/06 06:16:20;;;;;;;;;;;;;;;;;;6239993;22;19919;-80
2023/09/06 06:18:48;;;;;;;;;;;;;;;;;;6242190;22;19915;-80
2023/09/06 06:21:14;;;;;;;;;;;;;;;;;;6240685;22;19947;-80
2023/09/06 06:23:54;;;;;;;;;;;;;;;;;;6266393;22;19915;-80
2023/09/06 06:26:21;;;;;;;;;;;;;;;;;;6240870;22;19946;-80
2023/09/06 06:28:50;;;;;;;;;;;;;;;;;;6268265;22;20002;-80
2023/09/06 06:31:17;;;;;;;;;;;;;;;;;;6240595;22;19923;-80
2023/09/06 06:33:55;;;;;;;;;;;;;;;;;;6267295;22;19919;-79
2023/09/06 06:36:22;;;;;;;;;;;;;;;;;;6239268;22;19930;-80
2023/09/06 06:38:49;;;;;;;;;;;;;;;;;;6239354;22;20011;-80
2023/09/06 06:41:23;;;;;;;;;;;;;;;;;;6239698;22;19919;-80
2023/09/06 06:43:49;;;;;;;;;;;;;;;;;;6266338;22;19969;-80
2023/09/06 06:46:16;;;;;;;;;;;;;;;;;;6240735;22;20535;-80
2023/09/06 06:48:43;;;;;;;;;;;;;;;;;;6240417;22;20311;-80
2023/09/06 06:51:09;;;;;;;;;;;;;;;;;;6267075;22;20021;-80
2023/09/06 06:54:03;;;;;;;;;;;;;;;;;;;;;
2023/09/06 06:56:33;;;;;;;;;;;;;;;;;;6263713;22;19961;-80
2023/09/06 06:59:04;;;;;;;;;;;;;;;;;;6241140;22;19930;-80
2023/09/06 07:01:43;;;;;;;;;;;;;;;;;;6266616;22;19923;-80
2023/09/06 07:04:11;;;;;;;;;;;;;;;;;;6266615;22;19923;-80
2023/09/06 07:06:43;;;;;;;;;;;;;;;;;;6265214;22;20239;-83
2023/09/06 07:09:10;;;;;;;;;;;;;;;;;;6243640;22;19919;-84
2023/09/06 07:11:36;;;;;;;;;;;;;;;;;;6241645;22;19967;-83
2023/09/06 07:14:03;;;;;;;;;;;;;;;;;;6241829;22;19973;-84
2023/09/06 07:16:33;;;;;;;;;;;;;;;;;;6238535;22;19946;-84
2023/09/06 07:19:00;;;;;;;;;;;;;;;;;;6241205;22;19990;-84
2023/09/06 07:21:28;;;;;;;;;;;;;;;;;;6240315;22;19922;-84
2023/09/06 07:23:59;;;;;;;;;;;;;;;;;;6245322;22;19977;-83
2023/09/06 07:26:25;;;;;;;;;;;;;;;;;;6270474;22;20639;-84
2023/09/06 07:28:55;;;;;;;;;;;;;;;;;;6245398;22;19923;-84
2023/09/06 07:31:23;;;;;;;;;;;;;;;;;;6270889;22;20014;-83
2023/09/06 07:33:50;;;;;;;;;;;;;;;;;;6269247;22;19948;-84
2023/09/06 07:36:18;;;;;;;;;;;;;;;;;;6272701;22;19933;-84
2023/09/06 07:38:54;;;;;;;;;;;;;;;;;;6271847;22;19919;-84
2023/09/06 07:41:25;;;;;;;;;;;;;;;;;;6270040;22;19919;-83
2023/09/06 07:44:00;;;;;;;;;;;;;;;;;;6272857;22;19921;-84
2023/09/06 07:46:29;;;;;;;;;;;;;;;;;;6245515;22;20385;-84
2023/09/06 07:48:59;;;;;;;;;;;;;;;;;;6272761;22;19915;-84
2023/09/06 07:51:27;;;;;;;;;;;;;;;;;;6271625;22;20370;-84
2023/09/06 07:54:00;;;;;;;;;;;;;;;;;;6272911;22;19997;-84
2023/09/06 07:56:30;;;;;;;;;;;;;;;;;;6271168;22;19918;-83
2023/09/06 07:58:56;;;;;;;;;;;;;;;;;;6271270;22;19985;-84
2023/09/06 08:01:23;;;;;;;;;;;;;;;;;;6247212;22;19989;-84
2023/09/06 08:03:49;;;;;;;;;;;;;;;;;;6272340;22;19918;-84
2023/09/06 08:06:18;;;;;;;;;;;;;;;;;;6271128;22;19993;-84
2023/09/06 08:08:45;;;;;;;;;;;;;;;;;;6242645;22;19919;-84
2023/09/06 08:11:11;;;;;;;;;;;;;;;;;;6243575;22;20018;-84
2023/09/06 08:13:41;;;;;;;;;;;;;;;;;;6244531;22;19919;-84
2023/09/06 08:16:30;;;;;;;;;;;;;;;;;;6269597;22;19915;-83
2023/09/06 08:18:58;;;;;;;;;;;;;;;;;;6270756;22;19926;-84
2023/09/06 08:21:24;;;;;;;;;;;;;;;;;;6242770;22;20030;-83
2023/09/06 08:23:51;;;;;;;;;;;;;;;;;;6245436;22;19925;-84
2023/09/06 08:26:21;;;;;;;;;;;;;;;;;;6267675;22;19919;-84
2023/09/06 08:28:49;;;;;;;;;;;;;;;;;;6242103;22;19933;-84
2023/09/06 08:31:16;;;;;;;;;;;;;;;;;;6242943;22;20275;-84
2023/09/06 08:33:47;;;;;;;;;;;;;;;;;;6269326;22;20331;-84
2023/09/06 08:36:13;;;;;;;;;;;;;;;;;;6244762;22;19919;-83
2023/09/06 08:38:40;;;;;;;;;;;;;;;;;;6268736;22;19919;-83
2023/09/06 08:43:46;;;;;;;;;;;;;;;;;;6323661;22;20358;-84
2023/09/06 08:46:12;;;;;;;;;;;;;;;;;;6303873;22;19918;-86
2023/09/06 08:48:38;;;;;;;;;;;;;;;;;;6302202;22;20351;-86
2023/09/06 08:51:04;;;;;;;;;;;;;;;;;;6276229;22;19923;-86
2023/09/06 08:53:30;;;;;;;;;;;;;;;;;;6303311;22;19915;-86
2023/09/06 08:55:56;;;;;;;;;;;;;;;;;;6302504;22;19919;-86
2023/09/06 08:58:22;;;;;;;;;;;;;;;;;;6276298;22;19922;-85
2023/09/06 09:00:48;;;;;;;;;;;;;;;;;;6302556;22;20287;-87
2023/09/06 09:03:14;;;;;;;;;;;;;;;;;;6279036;22;19926;-85
2023/09/06 09:05:40;;;;;;;;;;;;;;;;;;6276946;22;20407;-84
2023/09/06 09:08:09;;;;;;;;;;;;;;;;;;6305837;22;20216;-92
2023/09/06 09:10:47;;;;;;;;;;;;;;;;;;6279296;22;19914;-91
2023/09/06 09:13:19;;;;;;;;;;;;;;;;;;6277900;22;19960;-92
2023/09/06 09:15:45;;;;;;;;;;;;;;;;;;6278651;22;20655;-92
2023/09/06 09:18:11;;;;;;;;;;;;;;;;;;6275671;22;19936;-91
2023/09/06 09:20:37;;;;;;;;;;;;;;;;;;6278615;22;19926;-92
2023/09/06 09:23:03;;;;;;;;;;;;;;;;;;6303363;22;19915;-92
2023/09/06 09:25:32;;;;;;;;;;;;;;;;;;6304034;22;19973;-92
2023/09/06 09:27:58;;;;;;;;;;;;;;;;;;6277503;22;19915;-92
2023/09/06 09:30:26;;;;;;;;;;;;;;;;;;6303688;22;19923;-91
2023/09/06 09:32:52;;;;;;;;;;;;;;;;;;6276637;22;20361;-91
2023/09/06 09:35:21;;;;;;;;;;;;;;;;;;6276192;22;20673;-91
2023/09/06 09:37:47;;;;;;;;;;;;;;;;;;6277778;22;20009;-91
2023/09/06 09:40:13;;;;;;;;;;;;;;;;;;6278979;22;19918;-91
2023/09/06 09:42:39;;;;;;;;;;;;;;;;;;6282520;22;19930;-92
2023/09/06 09:45:05;;;;;;;;;;;;;;;;;;6299367;22;20059;-92
2023/09/06 09:47:31;;;;;;;;;;;;;;;;;;6301518;22;20286;-92
2023/09/06 09:49:57;;;;;;;;;;;;;;;;;;6303238;22;19918;-91
2023/09/06 09:52:23;;;;;;;;;;;;;;;;;;6299817;22;20216;-91
2023/09/06 09:54:50;;;;;;;;;;;;;;;;;;6301266;22;19919;-92
2023/09/06 09:57:16;;;;;;;;;;;;;;;;;;6301839;22;20556;-91
2023/09/06 09:59:43;;;;;;;;;;;;;;;;;;6299993;22;19938;-92
2023/09/06 10:02:09;;;;;;;;;;;;;;;;;;6300119;22;19914;-92
2023/09/06 10:04:35;;;;;;;;;;;;;;;;;;6304077;22;20330;-91
2023/09/06 10:07:01;;;;;;;;;;;;;;;;;;6302457;22;20322;-92
2023/09/06 10:09:27;;;;;;;;;;;;;;;;;;6303599;22;20247;-91
2023/09/06 10:11:54;;;;;;;;;;;;;;;;;;6303000;22;19927;-91
2023/09/06 10:14:22;;;;;;;;;;;;;;;;;;6329799;22;19953;-91
2023/09/06 10:16:48;;;;;;;;;;;;;;;;;;6304663;22;20353;-92
2023/09/06 10:19:14;;;;;;;;;;;;;;;;;;6305120;22;19989;-92
2023/09/06 10:21:40;;;;;;;;;;;;;;;;;;6303586;22;19918;-92
2023/09/06 10:24:06;;;;;;;;;;;;;;;;;;6302156;22;19990;-91
2023/09/06 10:26:35;;;;;;;;;;;;;;;;;;6301890;22;19918;-91
2023/09/06 10:29:01;;;;;;;;;;;;;;;;;;6305774;22;20327;-91
2023/09/06 10:31:27;;;;;;;;;;;;;;;;;;6305242;22;19923;-91
2023/09/06 10:33:56;;;;;;;;;;;;;;;;;;6306042;22;19919;-90
2023/09/06 10:36:27;;;;;;;;;;;;;;;;;;6306007;22;19919;-91
2023/09/06 10:38:55;;;;;;;;;;;;;;;;;;6305764;22;19941;-92
2023/09/06 10:41:21;;;;;;;;;;;;;;;;;;6332380;22;19914;-92
2023/09/06 10:43:47;;;;;;;;;;;;;;;;;;6304933;22;19981;-93
2023/09/06 10:46:13;;;;;;;;;;;;;;;;;;6331147;22;20390;-91
2023/09/06 10:48:39;;;;;;;;;;;;;;;;;;6304585;22;19923;-91
2023/09/06 10:51:09;;;;;;;;;;;;;;;;;;6327784;22;19923;-91
2023/09/06 10:53:35;;;;;;;;;;;;;;;;;;6304939;22;19918;-91
2023/09/06 10:56:02;;;;;;;;;;;;;;;;;;6305870;22;19919;-91
2023/09/06 10:58:29;;;;;;;;;;;;;;;;;;6305422;22;20013;-91
2023/09/06 11:00:59;;;;;;;;;;;;;;;;;;6330885;22;19924;-92
2023/09/06 11:03:25;;;;;;;;;;;;;;;;;;6330848;22;19926;-91
2023/09/06 11:05:51;;;;;;;;;;;;;;;;;;6304503;22;20410;-91
2023/09/06 11:08:17;;;;;;;;;;;;;;;;;;6331401;22;19915;-92
2023/09/06 11:10:49;;;;;;;;;;;;;;;;;;6306137;22;20224;-91
2023/09/06 11:13:15;;;;;;;;;;;;;;;;;;6304344;22;20335;-91
2023/09/06 11:15:41;;;;;;;;;;;;;;;;;;6304038;22;19994;-92
2023/09/06 11:18:08;;;;;;;;;;;;;;;;;;6329848;22;19918;-90
2023/09/06 11:20:37;;;;;;;;;;;;;;;;;;6329467;22;20352;-91
2023/09/06 11:23:03;;;;;;;;;;;;;;;;;;6330486;22;19925;-91
2023/09/06 11:25:29;;;;;;;;;;;;;;;;;;6331066;22;19933;-92
2023/09/06 11:27:59;;;;;;;;;;;;;;;;;;6304709;22;20250;-92
2023/09/06 11:30:32;;;;;;;;;;;;;;;;;;6303091;22;20216;-91
2023/09/06 11:32:58;;;;;;;;;;;;;;;;;;6304279;22;19956;-92
2023/09/06 11:35:27;;;;;;;;;;;;;;;;;;6303529;22;20341;-91
2023/09/06 11:37:53;;;;;;;;;;;;;;;;;;6305187;22;19969;-92
2023/09/06 11:40:20;;;;;;;;;;;;;;;;;;6328807;22;19918;-91
2023/09/06 11:42:46;;;;;;;;;;;;;;;;;;6329856;22;20274;-91
2023/09/06 11:45:14;;;;;;;;;;;;;;;;;;6305518;22;19954;-93
2023/09/06 11:47:40;;;;;;;;;;;;;;;;;;6329726;22;19925;-90
2023/09/06 11:50:08;;;;;;;;;;;;;;;;;;6302804;22;19924;-92
2023/09/06 11:52:39;;;;;;;;;;;;;;;;;;6303677;22;19926;-91
2023/09/06 11:55:08;;;;;;;;;;;;;;;;;;6306075;22;19919;-91
2023/09/06 11:57:35;;;;;;;;;;;;;;;;;;6328305;22;20327;-91
2023/09/06 12:00:01;;;;;;;;;;;;;;;;;;6304594;22;19914;-91
2023/09/06 12:02:27;;;;;;;;;;;;;;;;;;6331570;22;19919;-92
2023/09/06 12:04:56;;;;;;;;;;;;;;;;;;6302983;22;19918;-94
2023/09/06 12:07:23;;;;;;;;;;;;;;;;;;6299623;22;19976;-91
2023/09/06 12:09:54;;;;;;;;;;;;;;;;;;6304576;22;19923;-93
2023/09/06 12:12:23;;;;;;;;;;;;;;;;;;6302879;22;19965;-92
2023/09/06 12:14:52;;;;;;;;;;;;;;;;;;6324543;22;19922;-92
2023/09/06 12:17:20;;;;;;;;;;;;;;;;;;6299649;22;19919;-92
2023/09/06 12:19:59;;;;;;;;;;;;;;;;;;;;;
2023/09/06 12:26:01;;;;;;;;;;;;;;;;;;6255950;22;20260;-86
2023/09/06 12:31:57;;;;;;;;;;;;;;;;;;;;;
2023/09/06 12:38:07;;;;;;;;;;;;;;;;;;6331641;22;19972;-85
2023/09/06 12:40:57;;;;;;;;;;;;;;;;;;;;;
2023/09/06 12:43:35;;;;;;;;;;;;;;;;;;6283175;22;20030;-86
2023/09/06 12:49:21;;;;;;;;;;;;;;;;;;6257542;22;20377;-86
2023/09/06 12:52:21;;;;;;;;;;;;;;;;;;6265408;22;19919;-85
2023/09/06 12:54:42;;;;;;;;;;;;;;;;;;6261619;22;20043;-85
2023/09/06 12:57:21;;;;;;;;;;;;;;;;;;6268161;22;19972;-85
2023/09/06 13:00:06;;;;;;;;;;;;;;;;;;6294754;22;19925;-86
2023/09/06 13:02:52;;;;;;;;;;;;;;;;;;6217095;22;19919;-86
2023/09/06 13:05:41;;;;;;;;;;;;;;;;;;;;;
2023/09/06 13:11:23;;;;;;;;;;;;;;;;;;6155251;23;19920;-86
2023/09/06 13:16:36;;;;;;;;;;;;;;;;;;6175987;23;19920;-86
2023/09/06 13:28:57;;;;;;;;;;;;;;;;;;6141718;23;20428;-86
2023/09/06 13:31:33;;;;;;;;;;;;;;;;;;6166989;23;20095;-86
2023/09/06 13:37:19;;;;;;;;;;;;;;;;;;6132079;23;19919;-86
2023/09/06 13:39:53;;;;;;;;;;;;;;;;;;6096173;23;19931;-87
2023/09/06 13:42:46;;;;;;;;;;;;;;;;;;6162469;23;19931;-87
2023/09/06 13:45:38;;;;;;;;;;;;;;;;;;;;;
2023/09/06 13:48:36;;;;;;;;;;;;;;;;;;6177698;23;19927;-86
2023/09/06 13:51:05;;;;;;;;;;;;;;;;;;6176289;23;20284;-86
2023/09/06 13:53:33;;;;;;;;;;;;;;;;;;6150141;23;19928;-87
2023/09/06 13:55:59;;;;;;;;;;;;;;;;;;6151245;23;20337;-86
2023/09/06 14:01:18;;;;;;;;;;;;;;;;;;6116626;23;20079;-86
2023/09/06 14:06:54;;;;;;;;;;;;;;;;;;;;;
2023/09/06 14:09:41;;;;;;;;;;;;;;;;;;6119146;23;19990;-87
2023/09/06 14:12:16;;;;;;;;;;;;;;;;;;6152103;23;20006;-87
2023/09/06 14:20:33;;;;;;;;;;;;;;;;;;6174189;23;20314;-86
2023/09/06 14:23:18;;;;;;;;;;;;;;;;;;6154654;23;20062;-86
2023/09/06 14:26:05;;;;;;;;;;;;;;;;;;6129895;23;20061;-87
2023/09/06 14:28:40;;;;;;;;;;;;;;;;;;6153090;23;19930;-87
2023/09/06 14:31:29;;;;;;;;;;;;;;;;;;6248762;22;19922;-86
2023/09/06 14:34:19;;;;;;;;;;;;;;;;;;6247407;22;19954;-86
2023/09/06 14:36:55;;;;;;;;;;;;;;;;;;6271272;22;19919;-86
2023/09/06 14:39:24;;;;;;;;;;;;;;;;;;6248396;22;19922;-86
2023/09/06 14:41:59;;;;;;;;;;;;;;;;;;6246955;22;19923;-85
2023/09/06 14:44:34;;;;;;;;;;;;;;;;;;6247363;22;19965;-86
2023/09/06 14:47:00;;;;;;;;;;;;;;;;;;6245121;22;19919;-86
2023/09/06 14:49:28;;;;;;;;;;;;;;;;;;6246981;22;19919;-86
2023/09/06 14:55:19;;;;;;;;;;;;;;;;;;6263210;22;19948;-85
2023/09/06 14:58:14;;;;;;;;;;;;;;;;;;;;;
2023/09/06 15:00:49;;;;;;;;;;;;;;;;;;6271746;22;19946;-85
2023/09/06 15:06:22;;;;;;;;;;;;;;;;;;6225104;22;19919;-87
2023/09/06 15:09:02;;;;;;;;;;;;;;;;;;6268010;22;20354;-85
2023/09/06 15:11:31;;;;;;;;;;;;;;;;;;6247667;22;19919;-84
2023/09/06 15:14:09;;;;;;;;;;;;;;;;;;6274131;22;19922;-86
2023/09/06 15:19:47;;;;;;;;;;;;;;;;;;6270167;22;19965;-85
2023/09/06 15:22:17;;;;;;;;;;;;;;;;;;6272565;22;19950;-86
2023/09/06 15:24:43;;;;;;;;;;;;;;;;;;6273891;22;19914;-86
2023/09/06 15:27:09;;;;;;;;;;;;;;;;;;6244654;22;19919;-86
2023/09/06 15:29:40;;;;;;;;;;;;;;;;;;6245711;22;19926;-86
2023/09/06 15:32:06;;;;;;;;;;;;;;;;;;6289011;22;19933;-86
2023/09/06 15:34:39;;;;;;;;;;;;;;;;;;6278643;22;19925;-86
2023/09/06 15:37:06;;;;;;;;;;;;;;;;;;6277712;22;19928;-85
2023/09/06 15:39:34;;;;;;;;;;;;;;;;;;6304658;22;19964;-86
2023/09/06 15:42:00;;;;;;;;;;;;;;;;;;6278464;22;20273;-85
2023/09/06 15:44:26;;;;;;;;;;;;;;;;;;6304820;22;19925;-86
2023/09/06 15:47:05;;;;;;;;;;;;;;;;;;6279731;22;19972;-85
2023/09/06 15:49:31;;;;;;;;;;;;;;;;;;6282532;22;19914;-86
2023/09/06 15:51:57;;;;;;;;;;;;;;;;;;6281741;22;19922;-86
2023/09/06 15:54:23;;;;;;;;;;;;;;;;;;6278467;22;19925;-86
2023/09/06 15:59:52;;;;;;;;;;;;;;;;;;6324400;22;19973;-86
2023/09/06 16:02:19;;;;;;;;;;;;;;;;;;6303009;22;20331;-86
2023/09/06 16:04:46;;;;;;;;;;;;;;;;;;6305849;22;19961;-86
2023/09/06 16:07:14;;;;;;;;;;;;;;;;;;6305901;22;19918;-85
2023/09/06 16:10:02;;;;;;;;;;;;;;;;;;6304677;22;19922;-85
2023/09/06 16:13:00;;;;;;;;;;;;;;;;;;6299660;22;19964;-85
2023/09/06 16:15:20;;;;;;;;;;;;;;;;;;6301477;22;19975;-85
2023/09/06 16:17:48;;;;;;;;;;;;;;;;;;6279854;22;19923;-86
2023/09/06 16:20:14;;;;;;;;;;;;;;;;;;6265027;22;19918;-85
2023/09/06 16:22:43;;;;;;;;;;;;;;;;;;6277158;22;19918;-85
2023/09/06 16:25:10;;;;;;;;;;;;;;;;;;6303604;22;19922;-85
2023/09/06 16:27:36;;;;;;;;;;;;;;;;;;6278957;22;19918;-85
2023/09/06 16:30:05;;;;;;;;;;;;;;;;;;6279539;22;20491;-85
2023/09/06 16:32:31;;;;;;;;;;;;;;;;;;6301563;22;19922;-86
2023/09/06 16:34:57;;;;;;;;;;;;;;;;;;6281519;22;20005;-85
2023/09/06 16:37:23;;;;;;;;;;;;;;;;;;6280954;22;20403;-86
2023/09/06 16:39:49;;;;;;;;;;;;;;;;;;6277076;22;19919;-86
2023/09/06 16:42:24;;;;;;;;;;;;;;;;;;6277329;22;19921;-85
2023/09/06 16:44:50;;;;;;;;;;;;;;;;;;6276498;22;20060;-86
2023/09/06 16:47:19;;;;;;;;;;;;;;;;;;6303807;22;19915;-85
2023/09/06 16:49:47;;;;;;;;;;;;;;;;;;6276620;22;19945;-85
2023/09/06 16:52:14;;;;;;;;;;;;;;;;;;6278359;22;20377;-85
2023/09/06 16:54:40;;;;;;;;;;;;;;;;;;6304547;22;20310;-85
2023/09/06 16:57:09;;;;;;;;;;;;;;;;;;6277117;22;19919;-86
2023/09/06 16:59:35;;;;;;;;;;;;;;;;;;6279077;22;19918;-85
2023/09/06 17:02:01;;;;;;;;;;;;;;;;;;6277968;22;20228;-85
2023/09/06 17:04:27;;;;;;;;;;;;;;;;;;6278768;22;20036;-86
2023/09/06 17:06:53;;;;;;;;;;;;;;;;;;6305693;22;20055;-86
2023/09/06 17:09:19;;;;;;;;;;;;;;;;;;6277318;22;19919;-85
2023/09/06 17:11:45;;;;;;;;;;;;;;;;;;6304810;22;20648;-85
2023/09/06 17:14:11;;;;;;;;;;;;;;;;;;6304675;22;20257;-85
2023/09/06 17:16:43;;;;;;;;;;;;;;;;;;6279670;22;19926;-85
2023/09/06 17:19:09;;;;;;;;;;;;;;;;;;6279330;22;20247;-86
2023/09/06 17:21:35;;;;;;;;;;;;;;;;;;6278627;22;19919;-86
2023/09/06 17:24:04;;;;;;;;;;;;;;;;;;6305693;22;19919;-85
2023/09/06 17:26:30;;;;;;;;;;;;;;;;;;6304605;22;19915;-86
2023/09/06 17:28:56;;;;;;;;;;;;;;;;;;6331788;22;19926;-85
2023/09/06 17:31:22;;;;;;;;;;;;;;;;;;6303818;22;20418;-85
2023/09/06 17:33:48;;;;;;;;;;;;;;;;;;6304629;22;19923;-85
2023/09/06 17:36:14;;;;;;;;;;;;;;;;;;6278664;22;19918;-85
2023/09/06 17:38:41;;;;;;;;;;;;;;;;;;6303938;22;19966;-85
2023/09/06 17:41:08;;;;;;;;;;;;;;;;;;6278337;22;19922;-85
2023/09/06 17:43:36;;;;;;;;;;;;;;;;;;6304673;22;20286;-86
2023/09/06 17:46:05;;;;;;;;;;;;;;;;;;6303312;22;19994;-85
2023/09/06 17:48:31;;;;;;;;;;;;;;;;;;6303108;22;20228;-85
2023/09/06 17:50:58;;;;;;;;;;;;;;;;;;6277740;22;19926;-85
2023/09/06 17:53:29;;;;;;;;;;;;;;;;;;6302803;22;20392;-85
2023/09/06 17:55:55;;;;;;;;;;;;;;;;;;6303557;22;19919;-85
2023/09/06 17:58:22;;;;;;;;;;;;;;;;;;6278293;22;19961;-85
2023/09/06 18:00:49;;;;;;;;;;;;;;;;;;6303424;22;19925;-85
2023/09/06 18:03:16;;;;;;;;;;;;;;;;;;6304201;22;19993;-85
2023/09/06 18:05:43;;;;;;;;;;;;;;;;;;6275765;22;19926;-85
2023/09/06 18:08:54;;;;;;;;;;;;;;;;;;6302278;22;20001;-85
2023/09/06 18:10:58;;;;;;;;;;;;;;;;;;6291219;22;19915;-85
2023/09/06 18:13:24;;;;;;;;;;;;;;;;;;6275438;22;20372;-85